Time;durP1;ratioP1;P1;durP2;ratioP2;P2;SDS_P1;SDS_P2;PMS_P1;PMS_P2;Temp;Humidity;BMP_temperature;BMP_pressure;BME280_temperature;BME280_humidity;BME280_pressure;Samples;Min_cycle;Max_cycle;Signal;HPM_P1;HPM_P2
2022/05/16 00:00:33;;;;;;;11.90;5.15;;;13.80;99.90;;;;;;5009922;28;20081;-68
2022/05/16 00:03:02;;;;;;;13.82;5.38;;;13.80;99.90;;;;;;5011748;28;20069;-69
2022/05/16 00:05:27;;;;;;;11.35;5.35;;;13.70;99.90;;;;;;5010568;28;20169;-68
2022/05/16 00:07:53;;;;;;;12.00;5.05;;;13.50;99.90;;;;;;5010295;28;20125;-68
2022/05/16 00:10:19;;;;;;;13.73;5.53;;;13.70;99.90;;;;;;5010772;28;20038;-68
2022/05/16 00:12:45;;;;;;;8.93;4.78;;;13.70;99.90;;;;;;5010071;28;20046;-69
2022/05/16 00:15:12;;;;;;;9.68;4.57;;;13.50;99.90;;;;;;5010256;28;20038;-69
2022/05/16 00:17:39;;;;;;;13.85;5.60;;;13.40;99.90;;;;;;5012458;28;20049;-70
2022/05/16 00:20:05;;;;;;;11.13;5.28;;;13.60;99.90;;;;;;4996840;28;20077;-68
2022/05/16 00:22:32;;;;;;;11.40;5.65;;;13.70;99.90;;;;;;5014078;28;20404;-68
2022/05/16 00:24:57;;;;;;;12.95;5.93;;;13.70;99.90;;;;;;5014135;28;20042;-69
2022/05/16 00:27:23;;;;;;;11.25;5.88;;;13.70;99.90;;;;;;5015273;28;20042;-68
2022/05/16 00:29:48;;;;;;;10.85;5.35;;;13.50;99.90;;;;;;5013049;28;20042;-69
2022/05/16 00:32:15;;;;;;;9.68;5.13;;;13.70;99.90;;;;;;5013627;28;20042;-68
2022/05/16 00:34:40;;;;;;;11.65;5.00;;;13.70;99.90;;;;;;5013757;28;20041;-68
2022/05/16 00:37:06;;;;;;;9.23;5.10;;;13.60;99.90;;;;;;5013616;28;20038;-68
2022/05/16 00:39:32;;;;;;;8.10;4.65;;;13.70;99.90;;;;;;5013081;28;20040;-68
2022/05/16 00:41:57;;;;;;;8.18;5.03;;;13.60;99.90;;;;;;5013509;28;20038;-69
2022/05/16 00:44:24;;;;;;;7.63;5.05;;;13.80;99.90;;;;;;5013813;28;20080;-68
2022/05/16 00:46:50;;;;;;;12.15;4.45;;;13.70;99.90;;;;;;5013511;28;20050;-68
2022/05/16 00:49:38;;;;;;;8.70;4.53;;;13.80;99.90;;;;;;4996552;28;20136;-68
2022/05/16 00:52:05;;;;;;;8.82;4.55;;;13.80;99.90;;;;;;5014429;28;20072;-68
2022/05/16 00:54:34;;;;;;;8.00;3.92;;;13.80;99.90;;;;;;5013318;28;20492;-69
2022/05/16 00:57:06;;;;;;;9.50;4.40;;;13.70;99.90;;;;;;5011654;28;20566;-68
2022/05/16 00:59:38;;;;;;;7.25;4.40;;;13.80;99.90;;;;;;5013738;28;20563;-68
2022/05/16 01:04:47;;;;;;;11.75;4.22;;;13.60;99.90;;;;;;5013459;28;20399;-68
2022/05/16 01:07:18;;;;;;;10.98;4.28;;;13.60;99.90;;;;;;4996683;28;20120;-68
2022/05/16 01:09:43;;;;;;;11.70;4.82;;;13.80;99.90;;;;;;5013655;28;20096;-68
2022/05/16 01:12:09;;;;;;;9.43;4.93;;;13.60;99.90;;;;;;5012657;28;20050;-68
2022/05/16 01:15:06;;;;;;;10.70;4.97;;;13.60;99.90;;;;;;5013101;28;20038;-68
2022/05/16 01:17:31;;;;;;;8.43;5.10;;;13.60;99.90;;;;;;5011591;28;20049;-68
2022/05/16 01:19:57;;;;;;;8.77;4.80;;;13.70;99.90;;;;;;5013470;28;20040;-68
2022/05/16 01:22:33;;;;;;;7.97;4.00;;;13.80;99.90;;;;;;5014030;28;20046;-68
2022/05/16 01:25:16;;;;;;;8.57;4.20;;;13.70;99.90;;;;;;5013352;28;20069;-68
2022/05/16 01:27:45;;;;;;;8.97;4.53;;;13.60;99.90;;;;;;5012787;28;20061;-68
2022/05/16 01:30:12;;;;;;;9.68;4.97;;;13.60;99.90;;;;;;5012563;28;20313;-68
2022/05/16 01:32:38;;;;;;;9.18;4.63;;;13.60;99.90;;;;;;5012381;28;20092;-68
2022/05/16 01:35:04;;;;;;;10.20;4.22;;;13.60;99.90;;;;;;5012618;28;20038;-68
2022/05/16 01:40:14;;;;;;;8.00;5.00;;;13.40;99.90;;;;;;5011726;28;20104;-68
2022/05/16 01:42:39;;;;;;;8.68;4.50;;;13.70;99.90;;;;;;5013711;28;20110;-68
2022/05/16 01:45:06;;;;;;;11.00;4.07;;;13.80;99.90;;;;;;5012582;28;20404;-68
2022/05/16 01:47:33;;;;;;;10.77;4.10;;;13.60;99.90;;;;;;5013571;28;20042;-69
2022/05/16 01:49:59;;;;;;;9.05;4.18;;;13.60;99.90;;;;;;5013054;28;20408;-68
2022/05/16 01:52:25;;;;;;;7.30;3.75;;;13.50;99.90;;;;;;5013550;28;20103;-68
2022/05/16 01:54:53;;;;;;;8.52;3.92;;;14.30;99.90;;;;;;5013631;28;20030;-67
2022/05/16 01:57:19;;;;;;;9.88;4.47;;;13.40;99.90;;;;;;5010458;28;20175;-68
2022/05/16 01:59:44;;;;;;;9.75;4.05;;;13.70;99.90;;;;;;5011547;28;20133;-68
2022/05/16 02:02:10;;;;;;;10.00;4.50;;;;;;;;;;5011956;28;20042;-68
2022/05/16 02:04:36;;;;;;;10.25;4.63;;;13.40;99.90;;;;;;5011998;28;20049;-68
2022/05/16 02:07:01;;;;;;;13.32;4.95;;;13.70;99.90;;;;;;4995922;28;20050;-68
2022/05/16 02:09:28;;;;;;;10.07;3.83;;;13.60;99.90;;;;;;4995003;28;20046;-69
2022/05/16 02:11:53;;;;;;;7.40;3.38;;;13.50;99.90;;;;;;5011727;28;20064;-68
2022/05/16 02:14:19;;;;;;;11.57;4.05;;;13.60;99.90;;;;;;5011933;28;20117;-68
2022/05/16 02:16:46;;;;;;;8.35;4.15;;;13.30;99.90;;;;;;5013268;28;20045;-68
2022/05/16 02:19:12;;;;;;;8.50;4.55;;;13.40;99.90;;;;;;5012383;28;20050;-68
2022/05/16 02:24:40;;;;;;;8.73;3.55;;;13.50;99.90;;;;;;5012938;28;20052;-68
2022/05/16 02:27:07;;;;;;;6.88;4.20;;;13.40;99.90;;;;;;5013122;28;20038;-68
2022/05/16 02:29:34;;;;;;;7.25;3.63;;;13.60;99.90;;;;;;5012035;28;20522;-68
2022/05/16 02:32:01;;;;;;;9.88;4.30;;;13.50;99.90;;;;;;5011411;28;20088;-69
2022/05/16 02:34:26;;;;;;;6.88;3.40;;;13.30;99.90;;;;;;5012879;28;20088;-69
2022/05/16 02:36:52;;;;;;;10.18;3.80;;;13.40;99.90;;;;;;5012794;28;20037;-69
2022/05/16 02:39:19;;;;;;;7.18;3.53;;;13.40;99.90;;;;;;5010496;28;20042;-68
2022/05/16 02:41:45;;;;;;;11.30;4.90;;;13.60;99.90;;;;;;4994887;28;20034;-69
2022/05/16 02:44:11;;;;;;;8.02;3.75;;;13.50;99.90;;;;;;4994990;28;20092;-68
2022/05/16 02:46:37;;;;;;;6.90;3.22;;;13.50;99.90;;;;;;5011251;28;20046;-68
2022/05/16 02:49:03;;;;;;;6.15;3.33;;;13.30;99.90;;;;;;5012057;28;20117;-68
2022/05/16 02:51:29;;;;;;;7.47;3.38;;;13.50;99.90;;;;;;4994598;28;20038;-68
2022/05/16 02:53:55;;;;;;;7.30;3.13;;;13.30;99.90;;;;;;5012253;28;20109;-68
2022/05/16 02:56:20;;;;;;;6.20;3.17;;;13.40;99.90;;;;;;4993777;28;20651;-68
2022/05/16 02:58:46;;;;;;;6.28;3.78;;;13.10;99.90;;;;;;5012491;28;20038;-69
2022/05/16 03:01:12;;;;;;;6.25;3.42;;;13.20;99.90;;;;;;5010480;28;20042;-68
2022/05/16 03:03:39;;;;;;;9.52;3.55;;;13.40;99.90;;;;;;5011031;28;20049;-69
2022/05/16 03:06:06;;;;;;;7.72;3.50;;;13.30;99.90;;;;;;5011236;28;20073;-68
2022/05/16 03:08:31;;;;;;;6.70;3.67;;;13.10;99.90;;;;;;5011119;28;20048;-68
2022/05/16 03:10:57;;;;;;;6.53;3.55;;;13.20;99.90;;;;;;5010110;28;20034;-69
2022/05/16 03:13:23;;;;;;;10.55;3.80;;;13.20;99.90;;;;;;5035568;22;20056;-68
2022/05/16 03:15:50;;;;;;;6.78;3.88;;;13.20;99.90;;;;;;4994665;28;20092;-68
2022/05/16 03:18:15;;;;;;;10.60;3.78;;;13.10;99.90;;;;;;4994247;28;20042;-67
2022/05/16 03:20:41;;;;;;;7.05;3.60;;;13.10;99.90;;;;;;5010898;28;20053;-67
2022/05/16 03:23:06;;;;;;;7.78;4.22;;;13.10;99.90;;;;;;4994100;28;20081;-68
2022/05/16 03:25:32;;;;;;;7.78;3.90;;;13.20;99.90;;;;;;5011649;28;20183;-67
2022/05/16 03:27:58;;;;;;;6.32;3.10;;;13.10;99.90;;;;;;5011859;28;20038;-67
2022/05/16 03:30:24;;;;;;;6.78;3.28;;;13.20;99.90;;;;;;4993265;28;20396;-67
2022/05/16 03:32:50;;;;;;;7.50;3.38;;;13.10;99.90;;;;;;5011455;28;20069;-67
2022/05/16 03:35:16;;;;;;;4.70;2.90;;;13.10;99.90;;;;;;4993967;28;20038;-68
2022/05/16 03:37:42;;;;;;;6.43;3.22;;;;;;;;;;5011791;28;20041;-67
2022/05/16 03:42:53;;;;;;;15.63;3.72;;;12.90;99.90;;;;;;5011663;28;20529;-69
2022/05/16 03:45:19;;;;;;;5.85;2.72;;;;;;;;;;5011418;28;20081;-67
2022/05/16 03:47:45;;;;;;;6.03;3.33;;;;;;;;;;4994155;28;20085;-66
2022/05/16 03:50:12;;;;;;;5.53;3.03;;;;;;;;;;4977001;28;20046;-66
2022/05/16 03:52:38;;;;;;;8.55;3.30;;;;;;;;;;4995866;28;20046;-66
2022/05/16 03:55:09;;;;;;;6.00;3.08;;;12.90;99.90;;;;;;5015445;28;20049;-66
2022/05/16 03:57:35;;;;;;;8.57;3.05;;;13.00;99.90;;;;;;5015546;28;20050;-67
2022/05/16 04:00:01;;;;;;;6.68;2.80;;;;;;;;;;5014614;28;20076;-68
2022/05/16 04:02:26;;;;;;;4.90;2.97;;;13.00;99.90;;;;;;4998196;28;20061;-67
2022/05/16 04:04:52;;;;;;;10.35;3.13;;;13.00;99.90;;;;;;5015461;28;20046;-67
2022/05/16 04:07:18;;;;;;;13.82;5.43;;;;;;;;;;4997598;28;20460;-67
2022/05/16 04:09:44;;;;;;;9.38;3.28;;;;;;;;;;5014358;28;20411;-67
2022/05/16 04:12:10;;;;;;;7.63;3.05;;;;;;;;;;5014938;28;20046;-67
2022/05/16 04:14:36;;;;;;;5.47;2.90;;;;;;;;;;5015006;28;20045;-69
2022/05/16 04:17:02;;;;;;;5.78;2.53;;;;;;;;;;4997756;28;20042;-67
2022/05/16 04:19:28;;;;;;;7.30;2.60;;;;;;;;;;5014406;28;20042;-67
2022/05/16 04:21:54;;;;;;;6.53;2.40;;;;;;;;;;5015121;28;20045;-67
2022/05/16 04:24:20;;;;;;;7.45;3.08;;;;;;;;;;4997305;28;20591;-68
2022/05/16 04:26:45;;;;;;;5.35;1.98;;;13.20;99.90;;;;;;5015075;28;20041;-67
2022/05/16 04:29:12;;;;;;;10.57;3.03;;;;;;;;;;4996767;28;20504;-67
2022/05/16 04:31:37;;;;;;;5.10;2.47;;;13.30;99.90;;;;;;4997343;28;20046;-67
2022/05/16 04:34:09;;;;;;;7.95;3.28;;;;;;;;;;4996974;28;20038;-67
2022/05/16 04:36:35;;;;;;;6.65;2.85;;;;;;;;;;4997176;28;20050;-67
2022/05/16 04:39:01;;;;;;;6.38;2.28;;;;;;;;;;5013985;28;20152;-67
2022/05/16 04:44:11;;;;;;;6.38;2.90;;;;;;;;;;5014349;28;20454;-67
2022/05/16 04:46:36;;;;;;;8.38;2.50;;;13.30;99.90;;;;;;4997222;28;20045;-66
2022/05/16 04:49:02;;;;;;;7.30;2.60;;;13.30;99.90;;;;;;4996381;28;20567;-67
2022/05/16 04:51:28;;;;;;;5.47;2.28;;;;;;;;;;5013771;28;20046;-67
2022/05/16 04:53:54;;;;;;;6.05;2.50;;;;;;;;;;4996740;28;20045;-67
2022/05/16 04:56:20;;;;;;;4.63;2.10;;;;;;;;;;4996602;28;20455;-68
2022/05/16 04:58:46;;;;;;;7.75;2.75;;;;;;;;;;4996614;28;20037;-67
2022/05/16 05:01:12;;;;;;;6.90;2.35;;;;;;;;;;4995866;28;20086;-67
2022/05/16 05:03:38;;;;;;;4.97;2.65;;;;;;;;;;4995409;28;20041;-68
2022/05/16 05:06:04;;;;;;;5.68;2.55;;;;;;;;;;4996842;28;20526;-68
2022/05/16 05:08:30;;;;;;;6.03;2.65;;;13.60;99.90;;;;;;4996743;28;20081;-69
2022/05/16 05:16:24;;;;;;;5.65;2.83;;;13.90;99.90;;;;;;4996668;28;20065;-67
2022/05/16 05:18:51;;;;;;;4.63;2.35;;;;;;;;;;4996411;28;20436;-67
2022/05/16 05:21:17;;;;;;;8.05;2.70;;;13.90;99.90;;;;;;4995776;28;20054;-67
2022/05/16 05:23:43;;;;;;;7.38;2.25;;;;;;;;;;4991124;28;20046;-67
2022/05/16 05:26:10;;;;;;;5.95;2.75;;;13.80;99.90;;;;;;4989077;28;20041;-67
2022/05/16 05:28:37;;;;;;;6.72;2.58;;;13.80;99.90;;;;;;4986295;28;20053;-69
2022/05/16 05:31:03;;;;;;;10.88;2.80;;;13.90;99.90;;;;;;4985809;28;20673;-67
2022/05/16 05:33:29;;;;;;;7.30;3.10;;;13.90;99.90;;;;;;4986812;28;20041;-67
2022/05/16 05:35:55;;;;;;;3.83;2.22;;;13.90;99.90;;;;;;4987602;28;20042;-67
2022/05/16 05:38:21;;;;;;;7.10;2.42;;;;;;;;;;4983936;28;20057;-67
2022/05/16 05:40:49;;;;;;;6.32;2.67;;;;;;;;;;5005520;28;20124;-67
2022/05/16 05:43:15;;;;;;;4.47;2.40;;;;;;;;;;4984019;28;20038;-67
2022/05/16 05:45:41;;;;;;;5.95;2.25;;;;;;;;;;5004871;28;20044;-66
2022/05/16 05:48:07;;;;;;;12.27;2.60;;;;;;;;;;4968594;28;20595;-68
2022/05/16 05:50:33;;;;;;;5.68;2.30;;;;;;;;;;5002760;28;20038;-68
2022/05/16 05:52:59;;;;;;;6.32;2.40;;;;;;;;;;5001000;28;20066;-68
2022/05/16 05:55:25;;;;;;;8.55;3.30;;;;;;;;;;5000462;28;20412;-67
2022/05/16 05:57:52;;;;;;;6.18;2.38;;;14.60;99.90;;;;;;4984040;28;20155;-67
2022/05/16 06:00:19;;;;;;;8.18;2.70;;;;;;;;;;5005416;28;20447;-68
2022/05/16 06:02:45;;;;;;;11.45;3.70;;;;;;;;;;4981253;28;20053;-67
2022/05/16 06:05:17;;;;;;;5.32;2.83;;;15.20;99.90;;;;;;4986690;28;20620;-67
2022/05/16 06:07:43;;;;;;;10.65;2.65;;;;;;;;;;4998682;28;20424;-68
2022/05/16 06:10:09;;;;;;;8.48;2.80;;;15.00;99.90;;;;;;4994849;28;20058;-67
2022/05/16 06:12:35;;;;;;;5.85;2.75;;;15.20;99.90;;;;;;4981249;28;20038;-67
2022/05/16 06:15:02;;;;;;;7.95;2.67;;;15.20;99.90;;;;;;4967369;28;20124;-68
2022/05/16 06:17:28;;;;;;;10.30;3.20;;;;;;;;;;5007613;28;20046;-68
2022/05/16 06:19:54;;;;;;;6.18;2.47;;;;;;;;;;4998802;28;20049;-67
2022/05/16 06:22:20;;;;;;;6.18;3.00;;;;;;;;;;4972404;28;20041;-69
2022/05/16 06:27:31;;;;;;;9.55;2.70;;;15.70;99.90;;;;;;5006275;28;20049;-68
2022/05/16 06:29:57;;;;;;;7.75;2.53;;;15.80;99.90;;;;;;4990704;28;20052;-68
2022/05/16 06:32:24;;;;;;;8.52;2.70;;;15.80;99.90;;;;;;4989227;28;20582;-68
2022/05/16 06:34:51;;;;;;;9.32;3.90;;;;;;;;;;4992309;28;20038;-69
2022/05/16 06:37:18;;;;;;;5.18;3.08;;;16.10;99.90;;;;;;4989752;28;20084;-68
2022/05/16 06:39:45;;;;;;;9.32;3.05;;;16.20;99.90;;;;;;4988873;28;20046;-69
2022/05/16 06:42:11;;;;;;;6.57;2.95;;;16.40;99.90;;;;;;5010071;28;20492;-68
2022/05/16 06:44:37;;;;;;;6.53;2.75;;;16.50;99.90;;;;;;5005569;28;20041;-68
2022/05/16 06:47:03;;;;;;;7.82;2.65;;;16.30;99.90;;;;;;4971475;28;20056;-68
2022/05/16 06:49:28;;;;;;;7.88;3.10;;;16.50;99.90;;;;;;4991197;28;20038;-68
2022/05/16 06:51:54;;;;;;;6.32;2.65;;;16.60;99.90;;;;;;4984638;28;20050;-67
2022/05/16 06:54:20;;;;;;;7.13;2.97;;;16.50;99.90;;;;;;4984461;28;20042;-68
2022/05/16 06:56:45;;;;;;;7.45;3.33;;;16.40;99.90;;;;;;5001452;28;20042;-67
2022/05/16 06:59:11;;;;;;;6.18;2.75;;;16.60;99.90;;;;;;4979756;28;20423;-69
2022/05/16 07:01:37;;;;;;;10.63;3.30;;;16.50;99.90;;;;;;4987673;28;20492;-67
2022/05/16 07:04:04;;;;;;;6.70;2.83;;;16.40;99.90;;;;;;5001415;28;20029;-68
2022/05/16 07:06:30;;;;;;;10.27;3.20;;;;;;;;;;5001568;28;20044;-67
2022/05/16 07:08:56;;;;;;;7.07;2.85;;;16.40;99.90;;;;;;4975720;28;20129;-66
2022/05/16 07:11:21;;;;;;;8.07;3.00;;;16.50;99.90;;;;;;4985365;28;20049;-68
2022/05/16 07:13:47;;;;;;;5.63;3.00;;;16.30;99.90;;;;;;4982491;28;20085;-69
2022/05/16 07:16:12;;;;;;;5.55;2.63;;;16.50;99.90;;;;;;4976464;28;20034;-68
2022/05/16 07:18:38;;;;;;;7.68;2.80;;;16.80;99.90;;;;;;5002157;28;20030;-68
2022/05/16 07:21:04;;;;;;;12.52;3.38;;;16.80;99.90;;;;;;5007188;28;20038;-68
2022/05/16 07:23:30;;;;;;;8.57;2.97;;;17.20;99.90;;;;;;4999470;28;20052;-68
2022/05/16 07:28:40;;;;;;;7.93;3.00;;;17.40;99.90;;;;;;4985264;28;20061;-67
2022/05/16 07:31:06;;;;;;;7.88;3.10;;;17.50;99.90;;;;;;4980903;28;20408;-67
2022/05/16 07:33:32;;;;;;;5.80;2.58;;;17.70;99.90;;;;;;4991521;28;20041;-67
2022/05/16 07:35:57;;;;;;;10.15;2.97;;;17.90;99.90;;;;;;4994216;28;20030;-68
2022/05/16 07:38:27;;;;;;;9.48;3.03;;;17.80;99.90;;;;;;4980028;28;20499;-68
2022/05/16 07:40:54;;;;;;;4.88;2.38;;;18.10;99.90;;;;;;5007109;28;20404;-67
2022/05/16 07:43:20;;;;;;;9.50;2.97;;;18.10;99.90;;;;;;4984679;28;20041;-67
2022/05/16 07:45:46;;;;;;;8.75;3.70;;;18.30;99.90;;;;;;4991095;28;20077;-67
2022/05/16 07:48:13;;;;;;;5.75;2.60;;;18.50;99.90;;;;;;4986524;28;20580;-68
2022/05/16 07:50:40;;;;;;;11.80;3.05;;;18.60;99.90;;;;;;4981200;28;20117;-68
2022/05/16 07:53:11;;;;;;;9.02;3.05;;;18.70;99.90;;;;;;4987366;28;20390;-68
2022/05/16 07:55:43;;;;;;;9.07;2.85;;;19.10;99.90;;;;;;4996497;28;20049;-68
2022/05/16 07:58:09;;;;;;;10.50;3.97;;;19.10;99.90;;;;;;4981219;28;20477;-67
2022/05/16 08:00:35;;;;;;;7.70;3.13;;;18.90;99.90;;;;;;5000866;28;20070;-68
2022/05/16 08:03:02;;;;;;;8.90;2.65;;;19.20;99.90;;;;;;5003244;28;20117;-68
2022/05/16 08:05:27;;;;;;;8.30;2.78;;;19.50;99.90;;;;;;4973018;28;20074;-68
2022/05/16 08:10:39;;;;;;;9.35;3.75;;;19.60;99.90;;;;;;4981835;28;20076;-68
2022/05/16 08:13:09;;;;;;;6.78;3.00;;;19.90;99.90;;;;;;4999356;28;20050;-67
2022/05/16 08:15:37;;;;;;;9.82;2.70;;;20.00;99.90;;;;;;4986054;28;20037;-67
2022/05/16 08:18:05;;;;;;;8.07;3.40;;;20.10;99.90;;;;;;4977492;28;20411;-68
2022/05/16 08:20:32;;;;;;;4.53;2.35;;;20.10;99.90;;;;;;4987968;28;20106;-68
2022/05/16 08:22:58;;;;;;;9.23;3.15;;;20.20;99.90;;;;;;4981025;28;20474;-67
2022/05/16 08:25:23;;;;;;;7.40;3.78;;;20.40;99.90;;;;;;4990811;28;20111;-67
2022/05/16 08:27:50;;;;;;;7.70;3.30;;;20.00;99.90;;;;;;4996339;28;20042;-68
2022/05/16 08:30:16;;;;;;;10.07;2.65;;;20.00;99.90;;;;;;5005107;28;20129;-68
2022/05/16 08:32:43;;;;;;;8.55;3.08;;;19.80;99.90;;;;;;5003418;28;20058;-69
2022/05/16 08:35:12;;;;;;;8.05;2.65;;;20.60;99.90;;;;;;4965348;28;20530;-66
2022/05/16 08:40:30;;;;;;;8.93;3.28;;;19.90;99.90;;;;;;5001336;28;20046;-68
2022/05/16 08:43:08;;;;;;;9.98;3.08;;;19.90;99.90;;;;;;5007926;28;20112;-69
2022/05/16 08:45:38;;;;;;;7.85;3.08;;;20.00;99.90;;;;;;5000859;28;20061;-69
2022/05/16 08:48:28;;;;;;;6.35;2.47;;;20.10;99.90;;;;;;4983428;28;20461;-69
2022/05/16 08:51:04;;;;;;;10.18;2.92;;;20.40;99.90;;;;;;5009259;28;20041;-70
2022/05/16 08:53:40;;;;;;;14.02;3.53;;;20.40;99.90;;;;;;4999699;28;20045;-68
2022/05/16 08:56:09;;;;;;;8.15;2.83;;;20.90;99.90;;;;;;4996678;28;20034;-69
2022/05/16 08:58:42;;;;;;;7.57;3.00;;;20.50;99.90;;;;;;5008969;28;20038;-68
2022/05/16 09:01:21;;;;;;;8.00;3.20;;;20.60;99.90;;;;;;4984012;28;20586;-67
2022/05/16 09:03:52;;;;;;;10.15;2.85;;;20.70;99.90;;;;;;4991237;28;20046;-69
2022/05/16 09:06:23;;;;;;;5.80;2.78;;;21.10;99.90;;;;;;5005951;28;20037;-69
2022/05/16 09:09:16;;;;;;;10.52;3.47;;;20.90;99.90;;;;;;4963223;28;20084;-69
2022/05/16 09:11:51;;;;;;;;;;;21.20;99.90;;;;;;4984663;28;20058;-69
2022/05/16 09:14:36;;;;;;;8.82;3.20;;;21.30;99.90;;;;;;5043779;22;19921;-69
2022/05/16 09:17:08;;;;;;;9.20;2.90;;;21.30;99.90;;;;;;4999431;28;20038;-69
2022/05/16 09:20:04;;;;;;;11.40;3.83;;;21.60;99.90;;;;;;5014802;28;20045;-70
2022/05/16 09:22:39;;;;;;;7.45;3.88;;;21.80;99.90;;;;;;4989853;28;20045;-70
2022/05/16 09:25:13;;;;;;;6.13;3.17;;;21.90;99.70;;;;;;4990125;28;20069;-70
2022/05/16 09:30:27;;;;;;;10.55;2.88;;;21.90;99.50;;;;;;4977368;28;20050;-70
2022/05/16 09:33:01;;;;;;;8.80;3.30;;;22.10;99.60;;;;;;4985846;28;20458;-70
2022/05/16 09:35:38;;;;;;;9.65;2.92;;;24.20;99.90;;;;;;4966446;28;20042;-69
2022/05/16 09:38:05;;;;;;;9.93;3.25;;;21.90;99.40;;;;;;4983930;28;20038;-70
2022/05/16 09:40:39;;;;;;;8.60;3.25;;;22.00;99.40;;;;;;4999067;28;20034;-70
2022/05/16 09:43:20;;;;;;;6.22;3.03;;;22.80;99.90;;;;;;4979620;28;20066;-70
2022/05/16 09:45:51;;;;;;;9.77;2.95;;;22.00;99.40;;;;;;4984634;28;20093;-69
2022/05/16 09:48:21;;;;;;;10.25;3.17;;;22.00;99.80;;;;;;5000940;28;20034;-69
2022/05/16 09:50:59;;;;;;;6.13;2.97;;;22.60;99.90;;;;;;5001124;28;20033;-68
2022/05/16 09:53:30;;;;;;;12.43;2.97;;;22.10;99.60;;;;;;4982442;28;20042;-69
2022/05/16 09:56:02;;;;;;;13.43;3.50;;;22.20;99.90;;;;;;5005578;28;20039;-69
2022/05/16 09:58:50;;;;;;;8.93;3.50;;;22.00;99.60;;;;;;4983433;28;20041;-69
2022/05/16 10:01:51;;;;;;;8.88;3.05;;;22.30;99.50;;;;;;5003226;28;20038;-69
2022/05/16 10:04:21;;;;;;;11.32;3.92;;;22.50;99.70;;;;;;4971816;28;20086;-69
2022/05/16 10:07:00;;;;;;;10.05;2.95;;;22.60;99.80;;;;;;4974503;28;20515;-69
2022/05/16 10:09:33;;;;;;;11.32;3.40;;;23.70;99.70;;;;;;4989964;28;20072;-69
2022/05/16 10:12:00;;;;;;;10.20;2.70;;;23.20;99.20;;;;;;5011093;28;20085;-69
2022/05/16 10:14:26;;;;;;;12.32;3.17;;;21.30;98.60;;;;;;4984345;28;20030;-69
2022/05/16 10:16:53;;;;;;;8.75;3.50;;;23.50;99.90;;;;;;4997133;28;20455;-69
2022/05/16 10:19:22;;;;;;;10.20;3.17;;;23.40;99.20;;;;;;4981825;28;20042;-71
2022/05/16 10:22:05;;;;;;;12.63;3.40;;;23.30;98.40;;;;;;4999768;28;20096;-70
2022/05/16 10:24:41;;;;;;;9.05;2.72;;;23.10;98.60;;;;;;5003963;28;20555;-69
2022/05/16 10:27:11;;;;;;;10.93;3.72;;;22.80;98.90;;;;;;4984806;28;20048;-69
2022/05/16 10:29:40;;;;;;;6.25;2.60;;;23.00;98.90;;;;;;4984517;28;20107;-69
2022/05/16 10:35:28;;;;;;;10.43;3.42;;;22.80;98.70;;;;;;4991537;28;20116;-69
2022/05/16 10:37:57;;;;;;;8.75;2.67;;;22.60;99.20;;;;;;4996699;28;20037;-69
2022/05/16 10:40:37;;;;;;;7.00;3.08;;;22.40;99.20;;;;;;4982077;28;20401;-69
2022/05/16 10:43:10;;;;;;;10.32;3.42;;;22.50;99.10;;;;;;4980725;28;20448;-69
2022/05/16 10:45:37;;;;;;;;;;;22.60;98.90;;;;;;5001942;28;20042;-69
2022/05/16 10:48:17;;;;;;;10.98;3.50;;;22.60;99.70;;;;;;4973980;28;19917;-69
2022/05/16 10:50:46;;;;;;;8.63;2.92;;;22.40;99.30;;;;;;4998000;28;20508;-69
2022/05/16 10:53:20;;;;;;;5.32;2.70;;;22.50;99.90;;;;;;4978386;28;20042;-70
2022/05/16 10:55:55;;;;;;;7.75;2.80;;;22.60;99.70;;;;;;5000151;28;20177;-69
2022/05/16 10:58:51;;;;;;;10.27;3.67;;;22.70;99.20;;;;;;4978945;28;20061;-69
2022/05/16 11:01:27;;;;;;;6.10;2.47;;;22.80;99.60;;;;;;4979836;28;20034;-69
2022/05/16 11:04:07;;;;;;;12.45;3.30;;;23.00;99.90;;;;;;4993421;28;20524;-70
2022/05/16 11:06:56;;;;;;;8.93;2.72;;;23.00;99.80;;;;;;4985818;28;20113;-69
2022/05/16 11:09:27;;;;;;;7.95;2.90;;;23.60;99.90;;;;;;4961585;28;20042;-67
2022/05/16 11:12:05;;;;;;;10.43;3.28;;;23.50;98.00;;;;;;5006365;28;20057;-70
2022/05/16 11:14:47;;;;;;;8.75;3.03;;;23.90;98.70;;;;;;4979812;28;20559;-70
2022/05/16 11:17:21;;;;;;;7.43;3.10;;;24.00;98.10;;;;;;5000321;28;20042;-69
2022/05/16 11:20:04;;;;;;;15.02;4.72;;;24.30;98.60;;;;;;5000756;28;20042;-69
2022/05/16 11:22:41;;;;;;;9.25;3.50;;;24.70;98.20;;;;;;4994138;28;20131;-69
2022/05/16 11:25:07;;;;;;;9.23;3.42;;;24.90;98.10;;;;;;4969918;28;20500;-70
2022/05/16 11:27:57;;;;;;;11.75;3.25;;;25.20;97.80;;;;;;4978604;28;20034;-70
2022/05/16 11:30:49;;;;;;;6.43;3.08;;;25.10;97.10;;;;;;4954827;28;20131;-72
2022/05/16 11:33:51;;;;;;;11.77;3.50;;;24.80;96.90;;;;;;4999724;28;20126;-70
2022/05/16 11:36:45;;;;;;;10.68;3.55;;;24.70;96.90;;;;;;4966878;28;20130;-70
2022/05/16 11:39:13;;;;;;;;;;;24.20;97.10;;;;;;5004954;28;20116;-69
2022/05/16 11:41:54;;;;;;;7.82;3.40;;;24.20;97.20;;;;;;5005609;28;19921;-69
2022/05/16 11:44:31;;;;;;;9.43;4.38;;;24.10;97.80;;;;;;4981499;28;20121;-69
2022/05/16 11:47:16;;;;;;;14.25;6.18;;;24.40;97.60;;;;;;4991179;28;20405;-69
2022/05/16 11:49:47;;;;;;;10.57;4.47;;;24.10;97.80;;;;;;4980092;28;20104;-69
2022/05/16 11:52:34;;;;;;;12.75;3.53;;;23.90;97.70;;;;;;4982048;28;20142;-69
2022/05/16 11:55:02;;;;;;;18.55;4.20;;;24.00;98.10;;;;;;5004356;28;20103;-69
2022/05/16 12:00:32;;;;;;;10.70;3.70;;;23.50;98.80;;;;;;4976453;28;20052;-67
2022/05/16 12:02:58;;;;;;;10.40;3.63;;;23.50;99.20;;;;;;4982372;28;20038;-69
2022/05/16 12:05:25;;;;;;;10.80;3.58;;;23.50;99.20;;;;;;4977109;28;20123;-70
2022/05/16 12:08:04;;;;;;;8.82;3.05;;;23.50;99.30;;;;;;4997349;28;20045;-69
2022/05/16 12:10:31;;;;;;;12.70;4.07;;;23.50;99.60;;;;;;4967588;28;20038;-70
2022/05/16 12:13:27;;;;;;;10.57;3.60;;;23.80;99.30;;;;;;4983949;28;20117;-68
2022/05/16 12:16:18;;;;;;;8.55;4.55;;;24.00;99.00;;;;;;4991598;28;20038;-69
2022/05/16 12:19:20;;;;;;;9.88;4.43;;;24.60;99.50;;;;;;4988587;28;20082;-69
2022/05/16 12:22:01;;;;;;;7.03;4.00;;;24.30;98.20;;;;;;4963937;28;20038;-69
2022/05/16 12:24:41;;;;;;;8.68;5.53;;;23.90;98.70;;;;;;4993495;28;20042;-69
2022/05/16 12:27:08;;;;;;;10.10;4.50;;;24.20;98.30;;;;;;4994743;28;20065;-70
2022/05/16 12:29:46;;;;;;;11.38;4.35;;;24.20;98.60;;;;;;4994573;28;20049;-70
2022/05/16 12:32:28;;;;;;;12.30;5.70;;;24.10;98.70;;;;;;4995059;28;20061;-69
2022/05/16 12:35:00;;;;;;;12.60;5.80;;;24.00;98.30;;;;;;4994476;28;20044;-69
2022/05/16 12:37:26;;;;;;;10.68;4.63;;;23.90;98.80;;;;;;4977881;28;20112;-69
2022/05/16 12:40:00;;;;;;;12.02;5.10;;;25.80;99.50;;;;;;4976776;28;20089;-69
2022/05/16 12:42:59;;;;;;;11.57;4.93;;;24.20;98.80;;;;;;4995067;28;20039;-69
2022/05/16 12:46:04;;;;;;;14.13;5.40;;;24.30;98.60;;;;;;4977482;28;20038;-69
2022/05/16 12:48:53;;;;;;;12.15;5.72;;;24.20;99.10;;;;;;4961240;28;20046;-69
2022/05/16 12:51:31;;;;;;;7.80;4.63;;;24.20;98.50;;;;;;4948783;28;20070;-69
2022/05/16 12:54:26;;;;;;;12.63;5.10;;;24.20;98.10;;;;;;4977238;28;20038;-71
2022/05/16 12:56:54;;;;;;;10.63;5.60;;;24.30;97.90;;;;;;4961115;28;20073;-69
2022/05/16 12:59:49;;;;;;;11.65;5.60;;;25.90;98.90;;;;;;4976718;28;20081;-69
2022/05/16 13:02:44;;;;;;;15.70;5.30;;;24.20;97.90;;;;;;4977056;28;20050;-69
2022/05/16 13:05:39;;;;;;;12.70;5.32;;;24.10;98.10;;;;;;4977260;28;20535;-69
2022/05/16 13:08:14;;;;;;;14.27;6.63;;;24.20;97.80;;;;;;4982457;28;20051;-69
2022/05/16 13:10:59;;;;;;;13.23;7.18;;;24.20;98.40;;;;;;4976184;28;20050;-69
2022/05/16 13:13:48;;;;;;;17.27;8.38;;;24.40;98.40;;;;;;4960631;28;20047;-69
2022/05/16 13:16:27;;;;;;;17.15;8.77;;;24.40;98.10;;;;;;4960947;28;20046;-69
2022/05/16 13:19:07;;;;;;;17.85;10.55;;;24.80;98.30;;;;;;4976903;28;20115;-69
2022/05/16 13:21:54;;;;;;;12.93;9.00;;;25.20;98.20;;;;;;4961135;28;20038;-69
2022/05/16 13:24:23;;;;;;;20.27;11.23;;;25.50;97.80;;;;;;4993387;28;20046;-69
2022/05/16 13:29:36;;;;;;;14.98;9.63;;;25.20;98.10;;;;;;4976403;28;20073;-69
2022/05/16 13:32:13;;;;;;;12.50;9.35;;;25.30;98.10;;;;;;4960893;28;20517;-69
2022/05/16 13:34:43;;;;;;;12.63;9.77;;;25.30;97.70;;;;;;4975299;28;20414;-69
2022/05/16 13:37:11;;;;;;;19.05;10.32;;;26.60;98.20;;;;;;4977167;28;20038;-69
2022/05/16 13:39:41;;;;;;;14.60;10.60;;;25.30;97.80;;;;;;4976047;28;20512;-69
2022/05/16 13:42:07;;;;;;;19.98;10.95;;;25.20;97.90;;;;;;4976937;28;20125;-69
2022/05/16 13:44:47;;;;;;;21.27;11.57;;;25.10;98.00;;;;;;4994225;28;20053;-69
2022/05/16 13:47:15;;;;;;;17.30;9.98;;;25.10;98.00;;;;;;4976613;28;20038;-69
2022/05/16 13:49:41;;;;;;;20.80;12.02;;;25.30;98.00;;;;;;4975752;28;20050;-69
2022/05/16 13:52:26;;;;;;;19.30;11.38;;;25.00;97.90;;;;;;4994358;28;20046;-69
2022/05/16 13:54:55;;;;;;;19.00;12.23;;;24.90;97.90;;;;;;4994043;28;20049;-69
2022/05/16 13:57:23;;;;;;;20.23;11.70;;;24.60;98.20;;;;;;4994072;28;20041;-69